createdAt,value
2019-04-29T00:01:11.008Z,14.73
2019-04-29T00:03:40.808Z,13.47
2019-04-29T00:06:10.673Z,13.97
2019-04-29T00:08:40.998Z,15.03
2019-04-29T00:11:11.124Z,16.13
2019-04-29T00:13:41.298Z,12.87
2019-04-29T00:16:45.580Z,15.17
2019-04-29T00:19:52.861Z,16.87
2019-04-29T00:22:22.644Z,14.07
2019-04-29T00:24:52.698Z,15.23
2019-04-29T00:27:22.895Z,15.23
2019-04-29T00:29:53.737Z,14.97
2019-04-29T00:32:25.361Z,15.40
2019-04-29T00:34:55.228Z,17.30
2019-04-29T00:37:33.248Z,13.33
2019-04-29T00:40:21.685Z,13.77
2019-04-29T00:42:58.788Z,13.43
2019-04-29T00:45:28.876Z,19.20
2019-04-29T00:47:58.688Z,15.87
2019-04-29T00:50:28.880Z,14.93
2019-04-29T00:52:58.701Z,16.37
2019-04-29T00:55:29.876Z,15.33
2019-04-29T00:58:00.236Z,14.27
2019-04-29T01:00:34.665Z,17.87
2019-04-29T01:03:05.111Z,17.10
2019-04-29T01:05:35.233Z,19.07
2019-04-29T01:08:05.215Z,13.77
2019-04-29T01:10:35.032Z,20.17
2019-04-29T01:13:05.204Z,18.67
2019-04-29T01:15:34.945Z,17.60
2019-04-29T01:18:05.088Z,17.63
2019-04-29T01:20:35.012Z,17.47
2019-04-29T01:23:05.032Z,16.33
2019-04-29T01:25:35.041Z,16.80
2019-04-29T01:28:15.168Z,19.40
2019-04-29T01:31:05.928Z,21.00
2019-04-29T01:33:35.836Z,20.83
2019-04-29T01:36:22.004Z,19.20
2019-04-29T01:38:52.952Z,20.97
2019-04-29T01:41:25.107Z,17.47
2019-04-29T01:44:02.174Z,20.60
2019-04-29T01:46:33.158Z,16.87
2019-04-29T01:49:03.435Z,21.37
2019-04-29T01:51:33.376Z,22.53
2019-04-29T01:54:03.252Z,21.70
2019-04-29T01:56:33.480Z,24.03
2019-04-29T01:59:03.239Z,20.67
2019-04-29T02:01:33.422Z,23.80
2019-04-29T02:04:03.556Z,19.37
2019-04-29T02:06:33.288Z,24.63
2019-04-29T02:09:05.508Z,24.17
2019-04-29T02:11:36.579Z,21.57
2019-04-29T02:14:07.081Z,25.50
2019-04-29T02:16:36.896Z,25.57
2019-04-29T02:19:06.771Z,22.20
2019-04-29T02:21:36.584Z,24.93
2019-04-29T02:24:11.432Z,21.00
2019-04-29T02:26:41.164Z,25.33
2019-04-29T02:29:11.044Z,24.57
2019-04-29T02:31:43.115Z,19.73
2019-04-29T02:34:13.001Z,27.33
2019-04-29T02:36:43.117Z,24.23
2019-04-29T02:39:30.136Z,25.70
2019-04-29T02:42:28.295Z,20.63
2019-04-29T02:45:02.399Z,20.27
2019-04-29T02:47:32.368Z,19.13
2019-04-29T02:50:02.186Z,24.30
2019-04-29T02:52:32.054Z,24.17
2019-04-29T02:55:03.865Z,22.73
2019-04-29T02:57:44.296Z,23.73
2019-04-29T03:00:34.158Z,22.53
2019-04-29T03:03:11.153Z,25.33
2019-04-29T03:05:45.289Z,23.03
2019-04-29T03:08:16.132Z,23.37
2019-04-29T03:10:46.529Z,26.70
2019-04-29T03:13:16.404Z,27.33
2019-04-29T03:15:46.338Z,27.10
2019-04-29T03:18:16.358Z,24.50
2019-04-29T03:21:11.565Z,26.57
2019-04-29T03:23:41.405Z,28.20
2019-04-29T03:26:11.237Z,27.93
2019-04-29T03:28:41.441Z,30.50
2019-04-29T03:31:11.206Z,31.73
2019-04-29T03:33:41.021Z,30.97
2019-04-29T03:36:10.906Z,32.93
2019-04-29T03:38:40.722Z,29.07
2019-04-29T03:41:11.925Z,29.97
2019-04-29T03:43:41.791Z,34.03
2019-04-29T03:46:11.842Z,31.47
2019-04-29T03:48:42.213Z,36.90
2019-04-29T03:51:12.349Z,31.10
2019-04-29T03:53:42.162Z,32.50
2019-04-29T03:56:12.317Z,41.37
2019-04-29T03:58:42.136Z,35.73
2019-04-29T04:01:30.932Z,39.53
2019-04-29T04:04:22.548Z,40.27
2019-04-29T04:06:57.459Z,36.53
2019-04-29T04:09:30.084Z,39.03
2019-04-29T04:12:00.224Z,39.83
2019-04-29T04:14:30.094Z,41.27
2019-04-29T04:17:20.205Z,42.53
2019-04-29T04:19:48.254Z,38.90
2019-04-29T04:22:18.085Z,45.10
2019-04-29T04:24:47.867Z,41.70
2019-04-29T04:27:17.614Z,47.37
2019-04-29T04:29:47.405Z,45.53
2019-04-29T04:32:17.144Z,43.67
2019-04-29T04:34:47.877Z,44.57
2019-04-29T04:37:17.680Z,46.43
2019-04-29T04:39:47.427Z,42.87
2019-04-29T04:42:17.580Z,40.37
2019-04-29T04:44:50.588Z,42.23
2019-04-29T04:47:20.983Z,44.33
2019-04-29T04:49:50.782Z,41.90
2019-04-29T04:52:20.866Z,39.80
2019-04-29T04:54:52.560Z,44.87
2019-04-29T04:57:22.398Z,40.57
2019-04-29T04:59:52.288Z,48.10
2019-04-29T05:02:24.021Z,42.40
2019-04-29T05:04:53.847Z,43.17
2019-04-29T05:07:23.834Z,42.10
2019-04-29T05:09:54.664Z,40.30
2019-04-29T05:12:24.465Z,39.83
2019-04-29T05:14:54.652Z,38.67
2019-04-29T05:17:24.391Z,37.93
2019-04-29T05:19:54.460Z,40.97
2019-04-29T05:22:24.823Z,38.77
2019-04-29T05:24:54.556Z,40.93
2019-04-29T05:27:24.708Z,40.83
2019-04-29T05:29:54.460Z,38.50
2019-04-29T05:32:24.692Z,39.37
2019-04-29T05:34:56.328Z,35.57
2019-04-29T05:37:41.927Z,38.30
2019-04-29T05:40:13.708Z,39.17
2019-04-29T05:42:43.474Z,43.20
2019-04-29T05:45:35.777Z,45.57
2019-04-29T05:48:10.649Z,46.10
2019-04-29T05:50:55.357Z,41.90
2019-04-29T05:53:28.987Z,46.47
2019-04-29T05:55:58.744Z,46.00
2019-04-29T05:58:28.604Z,53.27
2019-04-29T06:01:02.133Z,52.83
2019-04-29T06:03:33.522Z,52.20
2019-04-29T06:06:03.581Z,53.77
2019-04-29T06:08:34.483Z,47.30
2019-04-29T06:11:04.811Z,49.87
2019-04-29T06:13:34.661Z,50.97
2019-04-29T06:16:04.740Z,53.53
2019-04-29T06:18:34.581Z,52.20
2019-04-29T06:21:09.110Z,59.83
2019-04-29T06:23:35.853Z,54.43
2019-04-29T06:26:05.794Z,56.63
2019-04-29T06:28:35.711Z,54.57
2019-04-29T06:31:05.663Z,50.83
2019-04-29T06:33:35.400Z,59.80
2019-04-29T06:36:05.995Z,58.30
2019-04-29T06:38:35.724Z,55.43
2019-04-29T06:41:09.607Z,60.20
2019-04-29T06:43:37.236Z,58.73
2019-04-29T06:46:07.139Z,62.13
2019-04-29T06:48:36.928Z,61.67
2019-04-29T06:51:06.689Z,59.33
2019-04-29T06:53:36.444Z,58.00
2019-04-29T06:56:09.053Z,62.23
2019-04-29T06:58:38.453Z,60.17
2019-04-29T07:01:09.876Z,64.97
2019-04-29T07:03:39.621Z,61.93
2019-04-29T07:06:09.762Z,59.33
2019-04-29T07:08:39.593Z,61.03
2019-04-29T07:11:09.413Z,57.27
2019-04-29T07:13:39.171Z,59.50
2019-04-29T07:16:08.916Z,55.87
2019-04-29T07:18:39.831Z,59.33
2019-04-29T07:21:11.876Z,59.57
2019-04-29T07:23:41.628Z,54.83
2019-04-29T07:26:11.438Z,55.83
2019-04-29T07:28:41.601Z,57.93
2019-04-29T07:31:11.698Z,59.83
2019-04-29T07:33:41.620Z,57.57
2019-04-29T07:36:11.613Z,62.93
2019-04-29T07:38:46.201Z,55.10
2019-04-29T07:41:14.272Z,57.50
2019-04-29T07:43:44.807Z,57.77
2019-04-29T07:46:36.393Z,56.00
2019-04-29T07:49:05.796Z,54.13
2019-04-29T07:51:39.489Z,49.03
2019-04-29T07:54:11.019Z,55.10
2019-04-29T07:56:42.425Z,53.97
2019-04-29T07:59:11.346Z,49.63
2019-04-29T08:01:41.621Z,49.83
2019-04-29T08:04:11.425Z,50.23
2019-04-29T08:06:43.058Z,46.47
2019-04-29T08:09:13.416Z,43.93
2019-04-29T08:11:43.443Z,46.03
2019-04-29T08:14:13.510Z,47.47
2019-04-29T08:16:43.284Z,43.80
2019-04-29T08:19:13.106Z,44.33
2019-04-29T08:21:45.569Z,42.50
2019-04-29T08:24:15.937Z,43.07
2019-04-29T08:26:47.764Z,43.10
2019-04-29T08:29:17.832Z,36.73
2019-04-29T08:31:51.869Z,42.33
2019-04-29T08:34:23.237Z,42.00
2019-04-29T08:36:51.800Z,40.47
2019-04-29T08:39:25.203Z,36.53
2019-04-29T08:41:53.933Z,39.67
2019-04-29T08:44:42.797Z,35.90
2019-04-29T08:47:23.066Z,34.53
2019-04-29T08:49:53.605Z,38.77
2019-04-29T08:52:23.469Z,32.13
2019-04-29T08:54:55.482Z,36.80
2019-04-29T08:57:24.753Z,33.23
2019-04-29T08:59:54.617Z,34.03
2019-04-29T09:02:34.397Z,35.60
2019-04-29T09:04:56.309Z,36.63
2019-04-29T09:07:26.141Z,37.37
2019-04-29T09:10:01.645Z,35.63
2019-04-29T09:12:29.405Z,37.40
2019-04-29T09:14:59.694Z,42.33
2019-04-29T09:17:29.814Z,39.17
2019-04-29T09:19:59.626Z,39.10
2019-04-29T09:22:31.704Z,36.63
2019-04-29T09:25:16.691Z,37.23
2019-04-29T09:27:47.375Z,36.33
2019-04-29T09:30:17.655Z,38.93
2019-04-29T09:32:47.467Z,37.63
2019-04-29T09:35:17.727Z,37.20
2019-04-29T09:37:47.561Z,35.90
2019-04-29T09:40:19.304Z,35.87
2019-04-29T09:42:57.304Z,34.40
2019-04-29T09:45:33.633Z,39.33
2019-04-29T09:48:03.897Z,37.37
2019-04-29T09:50:34.232Z,39.13
2019-04-29T09:53:05.159Z,38.37
2019-04-29T09:55:35.571Z,41.83
2019-04-29T09:58:06.516Z,37.20
2019-04-29T10:00:58.291Z,37.97
2019-04-29T10:03:47.956Z,42.43
2019-04-29T10:06:27.724Z,34.47
2019-04-29T10:08:57.629Z,36.93
2019-04-29T10:11:27.699Z,34.47
2019-04-29T10:13:57.724Z,35.00
2019-04-29T10:16:53.874Z,34.23
2019-04-29T10:19:41.919Z,37.00
2019-04-29T10:22:12.238Z,28.63
2019-04-29T10:24:42.120Z,32.50
2019-04-29T10:27:14.353Z,29.57
2019-04-29T10:29:46.746Z,33.63
2019-04-29T10:32:17.407Z,32.93
2019-04-29T10:34:47.155Z,31.27
2019-04-29T10:37:16.981Z,30.73
2019-04-29T10:39:55.829Z,27.33
2019-04-29T10:42:31.632Z,30.23
2019-04-29T10:45:17.160Z,30.00
2019-04-29T10:48:04.375Z,30.40
2019-04-29T10:50:36.632Z,27.93
2019-04-29T10:53:11.046Z,29.10
2019-04-29T10:55:41.007Z,28.40
2019-04-29T10:58:11.206Z,31.33
2019-04-29T11:02:17.650Z,26.53
2019-04-29T11:04:49.447Z,28.27
2019-04-29T11:07:26.516Z,27.10
2019-04-29T11:10:00.390Z,30.23
2019-04-29T11:12:30.499Z,31.43
2019-04-29T11:15:01.734Z,29.23
2019-04-29T11:17:35.045Z,27.70
2019-04-29T11:20:04.771Z,28.37
2019-04-29T11:22:39.468Z,29.60
2019-04-29T11:25:27.588Z,25.00
2019-04-29T11:27:58.202Z,26.80
2019-04-29T11:30:29.088Z,25.27
2019-04-29T11:33:09.360Z,25.07
2019-04-29T11:35:59.152Z,25.17
2019-04-29T11:38:28.612Z,24.90
2019-04-29T11:40:58.740Z,24.97
2019-04-29T11:43:29.255Z,25.35
2019-04-29T11:45:59.093Z,22.03
2019-04-29T11:48:29.109Z,24.13
2019-04-29T11:51:14.989Z,23.17
2019-04-29T11:53:45.031Z,23.20
2019-04-29T11:56:14.744Z,20.73
2019-04-29T11:59:16.035Z,22.33
2019-04-29T12:02:04.970Z,21.00
2019-04-29T12:04:37.913Z,20.67
2019-04-29T12:07:07.739Z,21.47
2019-04-29T12:09:37.498Z,20.33
2019-04-29T12:12:12.643Z,20.90
2019-04-29T12:14:58.288Z,20.10
2019-04-29T12:17:31.661Z,17.37
2019-04-29T12:20:08.867Z,20.50
2019-04-29T12:22:48.151Z,18.60
2019-04-29T12:25:11.736Z,20.77
2019-04-29T12:27:41.552Z,18.17
2019-04-29T12:30:14.371Z,20.23
2019-04-29T12:33:01.252Z,19.50
2019-04-29T12:35:34.025Z,18.20
2019-04-29T12:38:49.016Z,22.03
2019-04-29T12:41:47.691Z,20.27
2019-04-29T12:44:13.036Z,19.03
2019-04-29T12:46:55.781Z,20.13
2019-04-29T12:49:25.830Z,21.23
2019-04-29T12:51:56.021Z,23.87
2019-04-29T12:54:25.829Z,21.03
2019-04-29T12:56:55.969Z,22.83
2019-04-29T12:59:25.740Z,22.53
2019-04-29T13:02:14.562Z,23.13
2019-04-29T13:05:09.390Z,22.63
2019-04-29T13:08:06.305Z,22.07
2019-04-29T13:11:01.017Z,22.67
2019-04-29T13:13:31.401Z,22.27
2019-04-29T13:16:20.823Z,19.53
2019-04-29T13:19:20.594Z,22.37
2019-04-29T13:21:50.415Z,17.03
2019-04-29T13:24:24.836Z,17.37
2019-04-29T13:26:51.840Z,15.17
2019-04-29T13:31:54.604Z,17.90
2019-04-29T13:33:22.277Z,17.67
2019-04-29T13:34:33.447Z,16.50
2019-04-29T13:37:12.300Z,16.00
2019-04-29T13:39:39.656Z,15.43
2019-04-29T13:42:09.087Z,11.50
2019-04-29T13:44:50.308Z,10.77
2019-04-29T13:47:29.299Z,13.77
2019-04-29T13:50:17.842Z,10.37
2019-04-29T13:52:37.495Z,10.43
2019-04-29T13:55:17.222Z,10.40
2019-04-29T13:57:39.615Z,11.73
2019-04-29T14:00:27.541Z,12.43
2019-04-29T14:03:00.891Z,14.60
2019-04-29T14:05:32.393Z,14.30
2019-04-29T14:08:03.891Z,12.80
2019-04-29T14:10:33.652Z,10.83
2019-04-29T14:13:10.491Z,12.33
2019-04-29T14:15:38.170Z,11.07
2019-04-29T14:18:11.558Z,12.20
2019-04-29T14:20:38.573Z,12.20
2019-04-29T14:23:08.816Z,12.90
2019-04-29T14:25:39.164Z,12.97
2019-04-29T14:28:09.056Z,12.27
2019-04-29T14:30:39.550Z,11.77
2019-04-29T14:33:10.696Z,13.30
2019-04-29T14:35:52.026Z,17.37
2019-04-29T14:38:24.236Z,11.53
2019-04-29T14:40:53.364Z,15.20
2019-04-29T14:43:42.820Z,12.77
2019-04-29T14:46:30.308Z,10.37
2019-04-29T14:49:09.223Z,10.50
2019-04-29T14:51:38.950Z,13.27
2019-04-29T14:54:08.724Z,10.50
2019-04-29T14:56:38.789Z,11.60
2019-04-29T14:59:08.572Z,10.93
2019-04-29T15:01:53.430Z,10.80
2019-04-29T15:04:25.589Z,11.10
2019-04-29T15:06:55.790Z,10.73
2019-04-29T15:09:25.634Z,12.73
2019-04-29T15:12:17.044Z,11.10
2019-04-29T15:15:09.831Z,8.43
2019-04-29T15:17:47.614Z,10.30
2019-04-29T15:20:30.274Z,11.30
2019-04-29T15:22:59.853Z,12.47
2019-04-29T15:25:29.681Z,9.00
2019-04-29T15:27:59.428Z,7.93
2019-04-29T15:30:31.806Z,5.80
2019-04-29T15:33:00.616Z,6.40
2019-04-29T15:35:30.426Z,6.37
2019-04-29T15:38:00.521Z,5.33
2019-04-29T15:40:30.551Z,5.03
2019-04-29T15:43:00.478Z,5.23
2019-04-29T15:45:32.303Z,5.30
2019-04-29T15:48:02.674Z,6.80
2019-04-29T15:50:36.597Z,5.77
2019-04-29T15:53:04.422Z,4.53
2019-04-29T15:55:34.840Z,4.57
2019-04-29T15:58:06.766Z,7.90
2019-04-29T16:00:40.289Z,4.33
2019-04-29T16:03:12.630Z,6.93
2019-04-29T16:06:19.817Z,5.07
2019-04-29T16:08:58.678Z,7.23
2019-04-29T16:11:44.488Z,5.67
2019-04-29T16:14:20.620Z,5.23
2019-04-29T16:16:50.377Z,5.97
2019-04-29T16:19:20.180Z,3.97
2019-04-29T16:21:50.001Z,7.87
2019-04-29T16:24:26.463Z,7.20
2019-04-29T16:26:53.720Z,4.80
2019-04-29T16:29:23.636Z,7.37
2019-04-29T16:34:25.863Z,5.83
2019-04-29T16:36:55.613Z,5.93
2019-04-29T16:39:25.766Z,5.33
2019-04-29T16:42:14.692Z,6.03
2019-04-29T16:44:46.461Z,7.57
2019-04-29T16:47:17.193Z,7.80
2019-04-29T16:49:47.645Z,4.27
2019-04-29T16:52:17.878Z,8.27
2019-04-29T16:54:47.769Z,6.53
2019-04-29T16:57:17.784Z,5.73
2019-04-29T16:59:48.156Z,6.40
2019-04-29T17:02:19.591Z,6.43
2019-04-29T17:04:49.595Z,5.80
2019-04-29T17:07:19.517Z,5.93
2019-04-29T17:10:07.967Z,7.40
2019-04-29T17:12:48.541Z,5.40
2019-04-29T17:15:25.024Z,6.17
2019-04-29T17:17:50.126Z,8.10
2019-04-29T17:20:20.119Z,7.00
2019-04-29T17:22:50.551Z,5.53
2019-04-29T17:25:20.565Z,6.07
2019-04-29T17:28:24.135Z,6.23
2019-04-29T17:31:11.926Z,8.40
2019-04-29T17:34:02.680Z,5.70
2019-04-29T17:35:19.072Z,9.20
2019-04-29T17:36:33.005Z,6.77
2019-04-29T17:39:03.938Z,5.47
2019-04-29T17:41:35.427Z,7.17
2019-04-29T17:44:24.699Z,5.90
2019-04-29T17:47:16.708Z,5.13
2019-04-29T17:49:57.139Z,6.43
2019-04-29T17:52:30.480Z,5.73
2019-04-29T17:55:12.487Z,8.67
2019-04-29T17:57:50.494Z,5.90
2019-04-29T18:00:59.505Z,5.33
2019-04-29T18:04:06.708Z,7.63
2019-04-29T18:07:06.650Z,6.60
2019-04-29T18:09:37.921Z,6.00
2019-04-29T18:12:19.039Z,6.20
2019-04-29T18:14:48.833Z,7.37
2019-04-29T18:17:27.454Z,6.87
2019-04-29T18:20:13.822Z,6.20
2019-04-29T18:23:00.119Z,5.97
2019-04-29T18:25:47.357Z,4.93
2019-04-29T18:28:17.168Z,5.73
2019-04-29T18:30:49.814Z,4.90
2019-04-29T18:33:23.471Z,9.80
2019-04-29T18:36:01.234Z,7.57
2019-04-29T18:38:22.802Z,6.83
2019-04-29T18:40:53.513Z,5.83
2019-04-29T18:43:26.339Z,10.13
2019-04-29T18:45:58.372Z,7.23
2019-04-29T18:48:27.185Z,7.87
2019-04-29T18:50:57.433Z,7.13
2019-04-29T18:53:27.168Z,8.43
2019-04-29T18:55:56.979Z,9.67
2019-04-29T18:58:26.781Z,7.57
2019-04-29T19:00:56.629Z,6.77
2019-04-29T19:03:37.949Z,9.63
2019-04-29T19:06:10.392Z,10.87
2019-04-29T19:08:39.556Z,7.62
2019-04-29T19:11:09.380Z,8.33
2019-04-29T19:13:39.200Z,8.10
2019-04-29T19:16:12.058Z,6.20
2019-04-29T19:18:40.732Z,6.43
2019-04-29T19:21:10.901Z,7.77
2019-04-29T19:23:41.012Z,7.47
2019-04-29T19:26:10.903Z,7.27
2019-04-29T19:28:40.719Z,9.33
2019-04-29T19:31:10.839Z,11.50
2019-04-29T19:33:40.649Z,9.00
2019-04-29T19:36:17.102Z,8.53
2019-04-29T19:38:43.306Z,9.47
2019-04-29T19:41:16.279Z,9.30
2019-04-29T19:43:48.350Z,13.20
2019-04-29T19:46:24.248Z,8.30
2019-04-29T19:48:48.828Z,8.43
2019-04-29T19:51:22.826Z,11.07
2019-04-29T19:53:50.436Z,6.40
2019-04-29T19:56:24.167Z,8.80
2019-04-29T19:58:55.141Z,10.43
2019-04-29T20:01:29.097Z,6.23
2019-04-29T20:04:15.454Z,7.07
2019-04-29T20:06:39.630Z,7.87
2019-04-29T20:09:17.406Z,9.13
2019-04-29T20:11:45.894Z,10.80
2019-04-29T20:14:20.750Z,9.03
2019-04-29T20:17:13.103Z,9.53
2019-04-29T20:19:42.010Z,7.50
2019-04-29T20:22:12.935Z,10.93
2019-04-29T20:24:47.111Z,8.10
2019-04-29T20:27:14.449Z,9.37
2019-04-29T20:29:45.783Z,9.60
2019-04-29T20:32:16.674Z,10.60
2019-04-29T20:34:47.045Z,7.67
2019-04-29T20:37:19.717Z,8.93
2019-04-29T20:39:52.047Z,7.47
2019-04-29T20:42:20.402Z,8.73
2019-04-29T20:44:51.854Z,13.47
2019-04-29T20:47:23.691Z,9.20
2019-04-29T20:49:53.443Z,11.47
2019-04-29T20:52:36.500Z,11.07
2019-04-29T20:55:09.205Z,9.77
2019-04-29T20:57:38.461Z,10.17
2019-04-29T21:00:09.605Z,11.40
2019-04-29T21:02:39.747Z,12.00
2019-04-29T21:05:14.140Z,11.57
2019-04-29T21:07:41.345Z,8.97
2019-04-29T21:10:12.009Z,11.00
2019-04-29T21:12:55.813Z,9.70
2019-04-29T21:15:32.259Z,10.97
2019-04-29T21:18:02.338Z,12.93
2019-04-29T21:20:32.272Z,10.97
2019-04-29T21:23:02.337Z,10.87
2019-04-29T21:25:32.079Z,13.10
2019-04-29T21:28:02.439Z,8.80
2019-04-29T21:30:37.766Z,10.70
2019-04-29T21:33:08.326Z,11.97
2019-04-29T21:35:45.448Z,11.83
2019-04-29T21:38:35.209Z,9.50
2019-04-29T21:41:09.491Z,11.70
2019-04-29T21:43:40.443Z,11.20
2019-04-29T21:46:10.254Z,10.13
2019-04-29T21:48:40.044Z,10.50
2019-04-29T21:51:11.159Z,9.37
2019-04-29T21:53:41.631Z,8.17
2019-04-29T21:56:11.473Z,9.83
2019-04-29T21:58:41.228Z,9.10
2019-04-29T22:01:11.601Z,9.00
2019-04-29T22:03:42.991Z,8.10
2019-04-29T22:06:12.812Z,10.43
2019-04-29T22:08:42.608Z,9.10
2019-04-29T22:11:12.875Z,10.70
2019-04-29T22:13:42.660Z,9.67
2019-04-29T22:16:15.825Z,9.53
2019-04-29T22:18:51.844Z,7.93
2019-04-29T22:21:22.111Z,9.70
2019-04-29T22:23:50.939Z,9.37
2019-04-29T22:26:23.286Z,9.80
2019-04-29T22:28:53.329Z,9.23
2019-04-29T22:31:33.788Z,12.50
2019-04-29T22:34:00.616Z,10.60
2019-04-29T22:36:30.627Z,11.33
2019-04-29T22:39:00.388Z,11.13
2019-04-29T22:41:43.065Z,9.80
2019-04-29T22:44:16.740Z,7.50
2019-04-29T22:46:47.099Z,11.47
2019-04-29T22:49:19.770Z,9.53
2019-04-29T22:51:49.800Z,9.57
2019-04-29T22:54:22.119Z,9.50
2019-04-29T22:56:53.669Z,10.50
2019-04-29T22:59:22.208Z,9.43
2019-04-29T23:01:52.004Z,10.90
2019-04-29T23:04:21.797Z,8.97
2019-04-29T23:06:51.718Z,11.27
2019-04-29T23:09:21.508Z,9.20
2019-04-29T23:11:51.446Z,10.93
2019-04-29T23:14:21.209Z,9.30
2019-04-29T23:16:51.505Z,10.37
2019-04-29T23:19:21.252Z,10.73
2019-04-29T23:22:10.516Z,9.20
2019-04-29T23:25:05.738Z,10.27
2019-04-29T23:27:36.137Z,10.73
2019-04-29T23:30:07.028Z,10.30
2019-04-29T23:32:39.396Z,12.53
2019-04-29T23:35:10.014Z,10.10
2019-04-29T23:37:39.920Z,11.83
2019-04-29T23:40:10.036Z,8.30
2019-04-29T23:42:43.684Z,11.20
2019-04-29T23:45:14.574Z,9.07
2019-04-29T23:47:46.970Z,9.10
2019-04-29T23:50:18.621Z,10.07
2019-04-29T23:52:51.690Z,8.57
2019-04-29T23:55:20.521Z,8.80
2019-04-29T23:58:10.025Z,10.57
